Time;durP1;ratioP1;P1;durP2;ratioP2;P2;SDS_P1;SDS_P2;PMS_P1;PMS_P2;Temp;Humidity;BMP_temperature;BMP_pressure;BME280_temperature;BME280_humidity;BME280_pressure;Samples;Min_cycle;Max_cycle;Signal;HPM_P1;HPM_P2
2022/10/05 00:01:24;;;;;;;0.05;0.05;;;11.00;99.90;;;;;;4963747;28;20225;-78
2022/10/05 00:03:59;;;;;;;0.10;0.10;;;10.90;99.90;;;;;;4966679;28;20315;-77
2022/10/05 00:06:29;;;;;;;0.10;0.10;;;10.90;99.90;;;;;;4972888;28;20200;-78
2022/10/05 00:09:00;;;;;;;0.10;0.10;;;10.90;99.90;;;;;;4960067;28;20200;-78
2022/10/05 00:11:28;;;;;;;0.10;0.10;;;10.90;99.90;;;;;;4958600;28;20613;-78
2022/10/05 00:13:57;;;;;;;0.10;0.10;;;10.90;99.90;;;;;;4976058;28;20674;-78
2022/10/05 00:16:27;;;;;;;0.10;0.10;;;10.90;99.90;;;;;;4973955;28;20193;-78
2022/10/05 00:18:55;;;;;;;0.10;0.10;;;10.90;99.90;;;;;;4954669;28;20683;-78
2022/10/05 00:21:25;;;;;;;0.10;0.10;;;10.90;99.90;;;;;;4961981;28;20264;-78
2022/10/05 00:24:00;;;;;;;0.10;0.10;;;10.80;99.90;;;;;;4974601;28;20209;-79
2022/10/05 00:26:33;;;;;;;0.10;0.10;;;10.80;99.90;;;;;;4963746;28;20205;-78
2022/10/05 00:29:02;;;;;;;0.10;0.10;;;10.80;99.90;;;;;;4956469;29;20196;-78
2022/10/05 00:31:35;;;;;;;0.10;0.10;;;10.80;99.90;;;;;;4954933;29;20261;-78
2022/10/05 00:34:03;;;;;;;0.10;0.10;;;10.90;99.90;;;;;;4961893;28;20205;-77
2022/10/05 00:36:31;;;;;;;0.10;0.10;;;10.90;99.90;;;;;;4975177;28;20200;-78
2022/10/05 00:39:02;;;;;;;0.10;0.10;;;11.00;99.90;;;;;;4965558;28;20228;-78
2022/10/05 00:41:38;;;;;;;0.10;0.10;;;11.00;99.90;;;;;;4955709;29;20217;-78
2022/10/05 00:44:26;;;;;;;0.10;0.10;;;10.90;99.90;;;;;;4967804;28;20295;-77
2022/10/05 00:47:01;;;;;;;0.10;0.10;;;10.90;99.90;;;;;;4973711;28;20197;-77
2022/10/05 00:49:49;;;;;;;0.10;0.10;;;10.90;99.90;;;;;;4972442;28;20228;-77
2022/10/05 00:52:31;;;;;;;0.10;0.10;;;10.90;99.90;;;;;;4934552;29;20756;-77
2022/10/05 00:55:08;;;;;;;0.10;0.10;;;10.90;99.90;;;;;;4946139;29;20214;-77
2022/10/05 00:57:46;;;;;;;0.10;0.10;;;10.90;99.90;;;;;;4953757;29;20205;-77
2022/10/05 01:00:19;;;;;;;0.10;0.10;;;10.90;99.90;;;;;;4968631;28;20461;-77
2022/10/05 01:02:57;;;;;;;0.10;0.10;;;10.90;99.90;;;;;;4957601;28;20567;-77
2022/10/05 01:13:32;;;;;;;0.10;0.10;;;10.70;99.90;;;;;;4935676;29;20190;-77
2022/10/05 01:16:10;;;;;;;0.10;0.10;;;10.70;99.90;;;;;;4968164;28;20204;-78
2022/10/05 01:18:49;;;;;;;0.05;0.05;;;10.70;99.90;;;;;;4961569;28;20656;-78
2022/10/05 01:21:20;;;;;;;0.10;0.10;;;10.70;99.90;;;;;;4953536;28;20704;-78
2022/10/05 01:24:17;;;;;;;0.10;0.10;;;10.60;99.90;;;;;;4954968;28;20213;-78
2022/10/05 01:27:21;;;;;;;0.10;0.10;;;10.60;99.90;;;;;;4946367;29;20208;-78
2022/10/05 01:29:59;;;;;;;0.10;0.10;;;10.60;99.90;;;;;;4938301;29;20236;-77
2022/10/05 01:32:34;;;;;;;0.10;0.10;;;10.50;99.90;;;;;;4946931;28;20201;-77
2022/10/05 01:35:16;;;;;;;0.10;0.10;;;10.60;99.90;;;;;;4960507;28;20205;-77
2022/10/05 01:37:55;;;;;;;0.10;0.10;;;10.60;99.90;;;;;;4951541;28;20206;-77
2022/10/05 01:40:33;;;;;;;0.10;0.10;;;10.60;99.90;;;;;;4969875;28;20220;-77
2022/10/05 01:43:11;;;;;;;0.10;0.10;;;10.60;99.90;;;;;;4946133;28;20304;-76
2022/10/05 01:45:52;;;;;;;0.10;0.10;;;10.60;99.90;;;;;;4968994;28;20259;-77
2022/10/05 01:48:27;;;;;;;0.10;0.10;;;10.60;99.90;;;;;;4957270;28;20212;-77
2022/10/05 01:51:05;;;;;;;0.10;0.10;;;10.60;99.90;;;;;;4937785;28;20740;-76
2022/10/05 01:53:42;;;;;;;0.03;0.03;;;10.60;99.90;;;;;;4966934;28;20201;-77
2022/10/05 01:56:19;;;;;;;0.10;0.10;;;10.60;99.90;;;;;;4947854;29;20205;-77
2022/10/05 01:58:54;;;;;;;0.10;0.10;;;10.60;99.90;;;;;;4937591;29;20208;-77
2022/10/05 02:01:31;;;;;;;0.10;0.10;;;10.60;99.90;;;;;;4929295;29;20389;-78
2022/10/05 02:04:05;;;;;;;0.10;0.10;;;10.60;99.90;;;;;;4949049;28;20200;-78
2022/10/05 02:06:40;;;;;;;0.10;0.10;;;10.50;99.90;;;;;;4952442;28;20233;-78
2022/10/05 02:09:15;;;;;;;0.10;0.10;;;10.50;99.90;;;;;;4956156;28;20204;-78
2022/10/05 02:11:48;;;;;;;0.10;0.10;;;10.40;99.90;;;;;;4944120;28;20210;-77
2022/10/05 02:14:21;;;;;;;0.10;0.10;;;10.50;99.90;;;;;;4966812;28;20209;-77
2022/10/05 02:16:54;;;;;;;0.10;0.10;;;10.50;99.90;;;;;;4952490;29;20206;-78
2022/10/05 02:19:27;;;;;;;0.10;0.10;;;10.50;99.90;;;;;;4946346;28;20597;-77
2022/10/05 02:22:02;;;;;;;0.10;0.10;;;10.50;99.90;;;;;;4961597;28;20262;-77
2022/10/05 02:24:35;;;;;;;0.10;0.10;;;10.50;99.90;;;;;;4953747;28;20256;-77
2022/10/05 02:27:05;;;;;;;0.10;0.10;;;10.50;99.90;;;;;;4937027;29;20665;-77
2022/10/05 02:29:35;;;;;;;0.00;0.00;;;10.50;99.90;;;;;;4950920;28;20245;-77
2022/10/05 02:32:08;;;;;;;0.10;0.10;;;10.40;99.90;;;;;;4951674;28;20199;-77
2022/10/05 02:34:38;;;;;;;0.10;0.10;;;10.40;99.90;;;;;;4953568;28;20756;-78
2022/10/05 02:37:34;;;;;;;0.10;0.10;;;10.40;99.90;;;;;;4958907;28;20201;-77
2022/10/05 02:40:18;;;;;;;0.10;0.10;;;10.50;99.90;;;;;;4955811;28;20700;-77
2022/10/05 02:42:55;;;;;;;0.10;0.10;;;10.50;99.90;;;;;;4945251;28;20244;-77
2022/10/05 02:45:36;;;;;;;0.10;0.10;;;10.50;99.90;;;;;;4956156;28;20292;-77
2022/10/05 02:48:13;;;;;;;0.10;0.10;;;10.50;99.90;;;;;;4956010;28;20201;-77
2022/10/05 02:50:49;;;;;;;0.10;0.10;;;10.50;99.90;;;;;;4968474;28;20228;-77
2022/10/05 02:53:27;;;;;;;0.10;0.10;;;10.60;99.90;;;;;;4945252;28;20209;-76
2022/10/05 02:56:09;;;;;;;0.10;0.10;;;10.50;99.90;;;;;;4955885;28;20197;-76
2022/10/05 02:58:45;;;;;;;0.10;0.10;;;10.60;99.90;;;;;;4973209;28;20189;-77
2022/10/05 03:01:25;;;;;;;0.05;0.05;;;10.60;99.90;;;;;;4938439;28;20782;-78
2022/10/05 03:04:08;;;;;;;0.10;0.10;;;10.60;99.90;;;;;;4961285;28;20628;-78
2022/10/05 03:06:47;;;;;;;0.10;0.10;;;10.50;99.90;;;;;;4938016;29;20256;-79
2022/10/05 03:09:21;;;;;;;0.10;0.10;;;10.50;99.90;;;;;;4943088;29;20296;-77
2022/10/05 03:12:03;;;;;;;0.10;0.10;;;10.60;99.90;;;;;;4961371;28;20280;-78
2022/10/05 03:14:45;;;;;;;0.05;0.05;;;10.60;99.90;;;;;;4968368;28;20585;-77
2022/10/05 03:17:16;;;;;;;0.00;0.00;;;10.60;99.90;;;;;;4943483;28;20556;-77
2022/10/05 03:20:07;;;;;;;0.10;0.10;;;10.60;99.90;;;;;;4949410;28;20257;-76
2022/10/05 03:22:50;;;;;;;0.10;0.10;;;10.60;99.90;;;;;;4950252;28;20710;-77
2022/10/05 03:25:53;;;;;;;0.10;0.10;;;10.60;99.90;;;;;;4943248;29;20261;-78
2022/10/05 03:28:27;;;;;;;0.10;0.10;;;10.60;99.90;;;;;;4957236;29;20205;-77
2022/10/05 03:31:03;;;;;;;0.10;0.10;;;10.60;99.90;;;;;;4969730;28;20237;-78
2022/10/05 03:33:42;;;;;;;0.10;0.10;;;10.70;99.90;;;;;;4979704;28;20200;-78
2022/10/05 03:36:22;;;;;;;0.10;0.10;;;10.70;99.90;;;;;;4973169;28;20228;-77
2022/10/05 03:38:59;;;;;;;0.10;0.10;;;10.70;99.90;;;;;;4937032;29;20229;-77
2022/10/05 03:41:36;;;;;;;0.10;0.10;;;10.60;99.90;;;;;;4943970;28;20208;-77
2022/10/05 03:44:23;;;;;;;0.08;0.08;;;10.60;99.90;;;;;;4934387;29;20236;-77
2022/10/05 03:47:11;;;;;;;0.10;0.10;;;10.60;99.90;;;;;;4983832;23;20535;-76
2022/10/05 03:49:52;;;;;;;0.10;0.10;;;10.50;99.90;;;;;;4988126;28;20216;-76
2022/10/05 03:52:27;;;;;;;0.10;0.10;;;10.40;99.90;;;;;;4969636;28;20216;-76
2022/10/05 03:54:59;;;;;;;0.10;0.10;;;10.40;99.90;;;;;;4988753;28;20234;-76
2022/10/05 03:57:33;;;;;;;0.10;0.10;;;10.30;99.90;;;;;;4973462;28;20225;-77
2022/10/05 04:00:12;;;;;;;0.10;0.10;;;10.30;99.90;;;;;;4961030;28;20200;-77
2022/10/05 04:03:09;;;;;;;0.10;0.10;;;10.20;99.90;;;;;;4983218;28;20220;-76
2022/10/05 04:05:45;;;;;;;0.10;0.10;;;10.10;99.90;;;;;;4987330;28;20344;-76
2022/10/05 04:08:22;;;;;;;0.10;0.10;;;10.10;99.90;;;;;;4992041;28;20212;-76
2022/10/05 04:10:54;;;;;;;0.10;0.10;;;10.10;99.90;;;;;;4991666;28;20208;-77
2022/10/05 04:13:28;;;;;;;0.05;0.05;;;10.10;99.90;;;;;;4978700;28;20307;-78
2022/10/05 04:16:02;;;;;;;0.10;0.10;;;10.20;99.90;;;;;;4977247;28;20216;-78
2022/10/05 04:18:34;;;;;;;0.10;0.10;;;10.20;99.90;;;;;;4979384;28;20232;-77
2022/10/05 04:21:08;;;;;;;0.10;0.10;;;10.20;99.90;;;;;;4963088;28;20660;-78
2022/10/05 04:23:56;;;;;;;0.10;0.10;;;10.20;99.90;;;;;;4980042;28;20272;-77
2022/10/05 04:26:33;;;;;;;0.10;0.10;;;10.20;99.90;;;;;;4973045;28;20778;-77
2022/10/05 04:29:07;;;;;;;0.10;0.10;;;10.20;99.90;;;;;;4950296;28;20229;-78
2022/10/05 04:31:56;;;;;;;0.10;0.10;;;10.20;99.90;;;;;;4953567;28;20205;-78
2022/10/05 04:34:44;;;;;;;0.10;0.10;;;10.30;99.90;;;;;;4969761;28;20192;-78
2022/10/05 04:37:18;;;;;;;0.10;0.10;;;10.20;99.90;;;;;;4976827;28;20239;-77
2022/10/05 04:40:01;;;;;;;0.10;0.10;;;10.20;99.90;;;;;;4971091;28;20204;-78
2022/10/05 04:42:34;;;;;;;0.10;0.10;;;10.10;99.90;;;;;;4982366;28;20552;-78
2022/10/05 04:45:09;;;;;;;0.10;0.10;;;10.10;99.90;;;;;;4955782;28;20221;-78
2022/10/05 04:48:09;;;;;;;0.10;0.10;;;10.10;99.90;;;;;;4983810;28;20801;-78
2022/10/05 04:50:47;;;;;;;0.10;0.10;;;9.90;99.90;;;;;;4986610;28;20205;-78
2022/10/05 04:53:27;;;;;;;0.10;0.10;;;9.90;99.90;;;;;;4986760;28;20248;-77
2022/10/05 04:56:02;;;;;;;0.10;0.10;;;9.90;99.90;;;;;;4973511;28;20223;-77
2022/10/05 04:58:43;;;;;;;0.10;0.10;;;9.90;99.90;;;;;;4965302;28;20203;-77
2022/10/05 05:01:29;;;;;;;0.10;0.10;;;9.90;99.90;;;;;;4976772;28;20248;-77
2022/10/05 05:04:14;;;;;;;0.10;0.10;;;9.90;99.90;;;;;;4970158;28;20222;-79
2022/10/05 05:06:51;;;;;;;0.10;0.10;;;9.90;99.90;;;;;;4984988;28;20259;-79
2022/10/05 05:09:48;;;;;;;0.00;0.00;;;10.00;99.90;;;;;;4995406;28;20208;-79
2022/10/05 05:12:26;;;;;;;0.10;0.10;;;10.10;99.90;;;;;;4956385;28;20586;-77
2022/10/05 05:15:20;;;;;;;0.10;0.10;;;10.10;99.90;;;;;;4969276;28;20202;-76
2022/10/05 05:18:05;;;;;;;0.00;0.00;;;10.10;99.90;;;;;;4981497;28;20224;-76
2022/10/05 05:20:48;;;;;;;0.10;0.10;;;10.10;99.90;;;;;;4997824;28;20192;-77
2022/10/05 05:23:27;;;;;;;0.00;0.00;;;10.20;99.90;;;;;;4995025;28;20673;-77
2022/10/05 05:26:07;;;;;;;0.10;0.10;;;10.20;99.90;;;;;;4976163;28;20239;-77
2022/10/05 05:28:47;;;;;;;0.10;0.10;;;10.20;99.90;;;;;;4957990;28;20583;-78
2022/10/05 05:31:27;;;;;;;0.10;0.10;;;10.30;99.90;;;;;;4965948;28;20231;-78
2022/10/05 05:34:06;;;;;;;0.10;0.10;;;10.30;99.90;;;;;;4992949;28;20215;-78
2022/10/05 05:36:51;;;;;;;0.00;0.00;;;10.30;99.90;;;;;;4975349;28;20240;-78
2022/10/05 05:39:25;;;;;;;0.10;0.10;;;10.30;99.90;;;;;;4978864;28;20208;-78
2022/10/05 05:42:00;;;;;;;0.10;0.10;;;10.40;99.90;;;;;;4985154;28;20203;-78
2022/10/05 05:44:36;;;;;;;0.10;0.10;;;10.40;99.90;;;;;;4993235;28;20223;-78
2022/10/05 05:47:17;;;;;;;0.10;0.10;;;10.40;99.90;;;;;;4975389;28;20235;-78
2022/10/05 05:49:59;;;;;;;0.10;0.10;;;10.40;99.90;;;;;;4993423;28;20260;-78
2022/10/05 05:52:40;;;;;;;0.10;0.10;;;10.40;99.90;;;;;;4964692;28;20210;-78
2022/10/05 05:55:17;;;;;;;0.10;0.10;;;10.40;99.90;;;;;;4940656;29;20202;-78
2022/10/05 05:57:53;;;;;;;0.10;0.10;;;10.40;99.90;;;;;;4972524;28;20220;-78
2022/10/05 06:00:27;;;;;;;0.10;0.10;;;10.40;99.90;;;;;;4957844;28;20899;-78
2022/10/05 06:03:06;;;;;;;0.10;0.10;;;10.40;99.90;;;;;;4956618;28;20208;-78
2022/10/05 06:05:40;;;;;;;0.10;0.10;;;10.40;99.90;;;;;;4957274;28;20232;-78
2022/10/05 06:08:24;;;;;;;0.10;0.10;;;10.50;99.90;;;;;;4957835;28;20211;-78
2022/10/05 06:11:01;;;;;;;0.10;0.10;;;10.50;99.90;;;;;;4957314;28;20229;-78
2022/10/05 06:13:34;;;;;;;0.10;0.10;;;10.50;99.90;;;;;;4973233;28;20205;-78
2022/10/05 06:16:14;;;;;;;0.10;0.10;;;10.50;99.90;;;;;;4956952;28;20232;-78
2022/10/05 06:18:46;;;;;;;0.10;0.10;;;10.50;99.90;;;;;;4974261;28;20275;-78
2022/10/05 06:21:20;;;;;;;0.10;0.10;;;10.50;99.90;;;;;;4974382;28;20197;-78
2022/10/05 06:23:56;;;;;;;0.10;0.10;;;10.40;99.90;;;;;;4973775;28;20215;-79
2022/10/05 06:27:16;;;;;;;0.10;0.10;;;10.50;99.90;;;;;;4958372;28;20252;-78
2022/10/05 06:30:02;;;;;;;0.10;0.10;;;10.60;99.90;;;;;;4956317;28;20209;-78
2022/10/05 06:32:35;;;;;;;0.10;0.10;;;10.50;99.90;;;;;;4973555;28;20224;-78
2022/10/05 06:35:17;;;;;;;0.10;0.10;;;10.60;99.90;;;;;;4956737;28;20197;-78
2022/10/05 06:38:02;;;;;;;0.10;0.10;;;10.60;99.90;;;;;;4956677;28;20303;-78
2022/10/05 06:40:47;;;;;;;0.10;0.10;;;10.60;99.90;;;;;;4956874;28;20197;-78
2022/10/05 06:43:40;;;;;;;0.10;0.10;;;10.60;99.90;;;;;;4965210;28;20206;-78
2022/10/05 06:46:47;;;;;;;0.10;0.10;;;10.70;99.90;;;;;;4902669;29;20242;-78
2022/10/05 06:49:32;;;;;;;0.10;0.10;;;10.70;99.90;;;;;;4955339;28;20552;-78
2022/10/05 06:52:27;;;;;;;0.10;0.10;;;10.80;99.90;;;;;;4973665;28;20223;-78
2022/10/05 06:55:11;;;;;;;0.10;0.10;;;10.90;99.90;;;;;;4973120;28;20209;-78
2022/10/05 06:57:55;;;;;;;0.03;0.03;;;11.00;99.90;;;;;;4976239;28;20231;-78
2022/10/05 07:00:27;;;;;;;0.10;0.10;;;11.10;99.90;;;;;;4974213;28;20798;-78
2022/10/05 07:03:03;;;;;;;0.10;0.10;;;11.10;99.90;;;;;;4973901;28;20208;-78
2022/10/05 07:06:16;;;;;;;0.10;0.10;;;11.20;99.90;;;;;;4974325;28;20311;-78
2022/10/05 07:09:03;;;;;;;0.10;0.10;;;11.20;99.90;;;;;;4973762;28;20228;-78
2022/10/05 07:11:50;;;;;;;0.03;0.03;;;11.30;99.90;;;;;;4973566;28;20727;-78
2022/10/05 07:14:47;;;;;;;0.10;0.10;;;11.40;99.90;;;;;;4972845;28;20228;-78
2022/10/05 07:17:26;;;;;;;0.10;0.10;;;11.50;99.90;;;;;;4972185;28;20221;-78
2022/10/05 07:20:05;;;;;;;0.10;0.10;;;11.50;99.90;;;;;;4975832;28;20538;-78
2022/10/05 07:22:48;;;;;;;0.00;0.00;;;11.60;99.90;;;;;;4972072;28;20558;-78
2022/10/05 07:25:22;;;;;;;0.08;0.08;;;11.70;99.90;;;;;;4972507;28;20209;-78
2022/10/05 07:27:56;;;;;;;0.10;0.10;;;11.80;99.90;;;;;;4963667;28;20643;-77
2022/10/05 07:30:24;;;;;;;0.10;0.10;;;11.80;99.90;;;;;;4967624;28;20256;-78
2022/10/05 07:32:59;;;;;;;0.10;0.10;;;11.90;99.90;;;;;;4969043;28;20207;-78
2022/10/05 07:38:30;;;;;;;0.10;0.10;;;12.00;99.90;;;;;;4967583;28;20216;-79
2022/10/05 07:41:06;;;;;;;0.10;0.10;;;12.10;99.90;;;;;;4976630;28;20625;-79
2022/10/05 07:43:43;;;;;;;0.00;0.00;;;12.20;99.90;;;;;;4989786;28;20206;-79
2022/10/05 07:46:46;;;;;;;0.10;0.10;;;12.20;99.90;;;;;;4966736;28;20311;-79
2022/10/05 07:49:23;;;;;;;0.10;0.10;;;12.30;99.90;;;;;;4983660;28;20216;-79
2022/10/05 07:51:55;;;;;;;0.03;0.03;;;12.40;99.90;;;;;;4977161;28;20690;-79
2022/10/05 07:54:33;;;;;;;0.10;0.10;;;12.50;99.90;;;;;;4992786;28;20212;-80
2022/10/05 07:57:14;;;;;;;0.10;0.10;;;12.50;99.90;;;;;;4957672;28;20363;-79
2022/10/05 07:59:47;;;;;;;0.10;0.10;;;12.60;99.90;;;;;;4971976;28;20240;-79
2022/10/05 08:02:24;;;;;;;0.10;0.10;;;12.60;99.90;;;;;;4988527;28;20201;-79
2022/10/05 08:04:58;;;;;;;0.10;0.10;;;12.70;99.90;;;;;;4984827;28;20267;-79
2022/10/05 08:07:29;;;;;;;0.10;0.10;;;12.80;99.90;;;;;;4955809;28;20566;-79
2022/10/05 08:10:13;;;;;;;0.10;0.10;;;12.80;99.90;;;;;;4957631;28;20681;-79
2022/10/05 08:12:52;;;;;;;0.00;0.00;;;12.90;99.90;;;;;;4976848;28;20204;-79
2022/10/05 08:15:23;;;;;;;0.10;0.10;;;13.00;99.90;;;;;;4981346;28;20200;-79
2022/10/05 08:17:55;;;;;;;0.00;0.00;;;13.10;99.90;;;;;;4987856;28;20267;-79
2022/10/05 08:20:38;;;;;;;0.10;0.10;;;13.20;99.90;;;;;;4983853;28;20633;-79
2022/10/05 08:23:19;;;;;;;0.10;0.10;;;13.30;99.90;;;;;;4981417;28;20259;-79
2022/10/05 08:26:02;;;;;;;0.10;0.10;;;13.30;99.90;;;;;;4975196;28;20233;-80
2022/10/05 08:28:35;;;;;;;0.10;0.10;;;13.40;99.90;;;;;;4960896;28;20225;-79
2022/10/05 08:31:13;;;;;;;0.00;0.00;;;13.50;99.90;;;;;;4988527;28;20216;-79
2022/10/05 08:33:55;;;;;;;0.10;0.10;;;13.60;99.90;;;;;;4998113;28;20204;-78
2022/10/05 08:36:43;;;;;;;0.10;0.10;;;13.80;99.90;;;;;;4996349;28;20224;-79
2022/10/05 08:39:17;;;;;;;0.10;0.10;;;13.90;99.90;;;;;;4982293;28;20220;-79
2022/10/05 08:42:19;;;;;;;0.00;0.00;;;14.00;99.90;;;;;;4998167;28;20200;-79
2022/10/05 08:45:14;;;;;;;0.00;0.00;;;14.20;99.90;;;;;;5016373;28;20216;-79
2022/10/05 08:48:25;;;;;;;0.10;0.10;;;14.30;99.90;;;;;;5001480;28;20263;-80
2022/10/05 08:51:14;;;;;;;0.10;0.10;;;14.40;99.90;;;;;;4974137;28;20214;-79
2022/10/05 08:54:18;;;;;;;0.10;0.10;;;14.50;99.90;;;;;;4959446;29;20206;-79
2022/10/05 08:56:58;;;;;;;0.00;0.00;;;14.60;99.90;;;;;;4974357;28;20213;-79
2022/10/05 09:00:02;;;;;;;0.10;0.10;;;14.70;99.90;;;;;;4996939;28;20242;-79
2022/10/05 09:02:56;;;;;;;0.10;0.10;;;14.80;99.90;;;;;;4958935;29;20198;-79
2022/10/05 09:05:50;;;;;;;0.00;0.00;;;14.80;99.90;;;;;;4943296;28;20236;-79
2022/10/05 09:08:47;;;;;;;0.00;0.00;;;15.00;99.90;;;;;;4991149;28;20251;-79
2022/10/05 09:11:24;;;;;;;0.00;0.00;;;15.10;99.90;;;;;;4948674;28;20198;-79
2022/10/05 09:14:24;;;;;;;0.10;0.10;;;15.10;99.90;;;;;;4978352;28;20668;-79
2022/10/05 09:17:21;;;;;;;0.00;0.00;;;15.10;99.90;;;;;;4968241;28;20685;-79
2022/10/05 09:20:13;;;;;;;0.10;0.10;;;15.20;99.90;;;;;;4982251;28;20255;-79
2022/10/05 09:23:08;;;;;;;0.00;0.00;;;15.30;99.90;;;;;;4962116;28;20238;-79
2022/10/05 09:25:47;;;;;;;0.00;0.00;;;15.50;99.90;;;;;;5019422;23;20217;-79
2022/10/05 09:28:31;;;;;;;0.00;0.00;;;15.60;99.90;;;;;;4969340;28;20247;-79
2022/10/05 09:31:43;;;;;;;0.10;0.10;;;15.70;99.90;;;;;;4961449;28;20200;-79
2022/10/05 09:35:04;;;;;;;0.10;0.10;;;15.70;99.90;;;;;;4960855;28;20215;-79
2022/10/05 09:37:56;;;;;;;0.10;0.10;;;15.80;99.90;;;;;;4943821;29;20225;-79
2022/10/05 09:41:06;;;;;;;0.00;0.00;;;15.90;99.90;;;;;;4945372;28;20288;-79
2022/10/05 09:44:11;;;;;;;0.00;0.00;;;15.90;99.90;;;;;;4933578;29;20210;-79
2022/10/05 09:47:09;;;;;;;0.00;0.00;;;16.00;99.90;;;;;;4984669;23;20229;-76
2022/10/05 09:50:04;;;;;;;0.10;0.10;;;16.00;99.90;;;;;;4990612;28;20216;-75
2022/10/05 09:52:53;;;;;;;0.00;0.00;;;16.00;99.90;;;;;;4970819;28;20217;-75
2022/10/05 09:55:50;;;;;;;0.00;0.00;;;16.10;99.90;;;;;;4994407;28;20208;-76
2022/10/05 09:58:45;;;;;;;0.03;0.03;;;16.10;99.90;;;;;;4964613;28;20618;-76
2022/10/05 10:01:37;;;;;;;0.00;0.00;;;16.20;99.90;;;;;;4953985;28;20209;-76
2022/10/05 10:04:44;;;;;;;0.05;0.05;;;16.20;99.90;;;;;;4958839;28;20193;-76
2022/10/05 10:07:37;;;;;;;0.00;0.00;;;16.20;99.90;;;;;;4919728;28;20500;-76
2022/10/05 10:10:30;;;;;;;0.00;0.00;;;16.30;99.90;;;;;;4957211;28;20570;-76
2022/10/05 10:13:24;;;;;;;0.00;0.00;;;16.40;99.90;;;;;;4935376;29;20566;-76
2022/10/05 10:16:16;;;;;;;0.00;0.00;;;16.50;99.90;;;;;;4934423;28;20207;-77
2022/10/05 10:19:04;;;;;;;0.00;0.00;;;16.70;99.90;;;;;;4934589;29;20262;-76
2022/10/05 10:22:10;;;;;;;0.00;0.00;;;16.70;99.90;;;;;;4946418;28;20206;-75
2022/10/05 10:24:57;;;;;;;0.00;0.00;;;16.70;99.90;;;;;;4954101;28;20198;-75
2022/10/05 10:27:44;;;;;;;0.10;0.10;;;16.80;99.90;;;;;;4959866;28;20241;-76
2022/10/05 10:30:38;;;;;;;0.00;0.00;;;17.00;99.90;;;;;;4957219;28;20296;-76
2022/10/05 10:33:41;;;;;;;0.00;0.00;;;17.10;99.90;;;;;;4953902;29;20637;-76
2022/10/05 10:36:13;;;;;;;0.00;0.00;;;17.40;99.90;;;;;;4957835;28;20287;-75
2022/10/05 10:38:53;;;;;;;0.00;0.00;;;17.50;99.90;;;;;;4963887;28;20256;-75
2022/10/05 10:41:54;;;;;;;0.00;0.00;;;17.60;99.90;;;;;;4966123;28;20580;-77
2022/10/05 10:44:53;;;;;;;0.00;0.00;;;17.70;99.90;;;;;;4935871;28;20226;-76
2022/10/05 10:47:49;;;;;;;0.00;0.00;;;17.80;99.90;;;;;;4961866;28;20656;-76
2022/10/05 10:51:00;;;;;;;0.00;0.00;;;17.90;99.90;;;;;;4936691;28;20626;-76
2022/10/05 10:54:07;;;;;;;0.00;0.00;;;18.10;99.90;;;;;;4956639;28;20201;-76
2022/10/05 10:56:50;;;;;;;0.00;0.00;;;18.10;99.90;;;;;;4947721;28;20241;-78
2022/10/05 10:59:56;;;;;;;0.00;0.00;;;18.10;99.90;;;;;;4951852;28;20201;-77
2022/10/05 11:02:38;;;;;;;0.00;0.00;;;18.20;99.90;;;;;;4944521;29;20193;-76
2022/10/05 11:05:31;;;;;;;0.00;0.00;;;18.20;99.90;;;;;;4955381;28;20197;-77
2022/10/05 11:08:26;;;;;;;0.00;0.00;;;18.10;99.90;;;;;;4948787;28;20240;-77
2022/10/05 11:11:29;;;;;;;0.00;0.00;;;18.00;99.90;;;;;;4919169;28;20229;-76
2022/10/05 11:14:28;;;;;;;0.00;0.00;;;18.10;99.90;;;;;;4936369;28;20209;-77
2022/10/05 11:17:27;;;;;;;0.00;0.00;;;18.20;99.90;;;;;;4909159;28;20242;-77
2022/10/05 11:20:08;;;;;;;0.00;0.00;;;18.30;99.90;;;;;;4943744;28;20205;-77
2022/10/05 11:22:47;;;;;;;0.00;0.00;;;18.60;99.90;;;;;;4967410;28;20208;-77
2022/10/05 11:25:49;;;;;;;0.00;0.00;;;18.80;99.90;;;;;;4960820;28;20197;-77
2022/10/05 11:28:40;;;;;;;0.00;0.00;;;18.80;99.90;;;;;;4950158;28;20794;-76
2022/10/05 11:31:35;;;;;;;0.00;0.00;;;18.90;99.90;;;;;;4958557;28;20569;-78
2022/10/05 11:34:42;;;;;;;0.00;0.00;;;19.10;99.90;;;;;;4953688;29;20201;-76
2022/10/05 11:37:36;;;;;;;0.00;0.00;;;19.00;99.90;;;;;;4957981;28;20737;-76
2022/10/05 11:40:47;;;;;;;0.00;0.00;;;19.30;99.90;;;;;;4964929;28;20260;-76
2022/10/05 11:43:40;;;;;;;0.00;0.00;;;19.40;99.90;;;;;;4931922;29;20573;-76
2022/10/05 11:46:13;;;;;;;0.00;0.00;;;19.50;99.90;;;;;;4953707;28;20711;-76
2022/10/05 11:49:20;;;;;;;0.00;0.00;;;19.60;99.90;;;;;;4967336;28;20222;-75
2022/10/05 11:51:56;;;;;;;0.00;0.00;;;19.80;99.90;;;;;;4955670;28;20221;-77
2022/10/05 11:54:36;;;;;;;0.00;0.00;;;19.90;99.90;;;;;;4961273;28;20200;-77
2022/10/05 11:57:28;;;;;;;0.00;0.00;;;19.70;99.90;;;;;;4962497;28;20260;-76
2022/10/05 12:00:02;;;;;;;0.00;0.00;;;19.70;99.90;;;;;;4973790;28;20248;-77
2022/10/05 12:02:54;;;;;;;0.00;0.00;;;19.90;99.90;;;;;;4954536;28;20201;-76
2022/10/05 12:05:28;;;;;;;0.00;0.00;;;19.80;99.90;;;;;;4963930;28;20220;-77
2022/10/05 12:08:12;;;;;;;0.00;0.00;;;20.00;99.90;;;;;;4977542;28;20221;-76
2022/10/05 12:10:54;;;;;;;0.00;0.00;;;19.90;99.90;;;;;;4974063;28;20228;-76
2022/10/05 12:13:35;;;;;;;0.00;0.00;;;19.70;99.90;;;;;;4979480;28;20522;-76
2022/10/05 12:16:10;;;;;;;0.00;0.00;;;19.80;99.90;;;;;;4963338;28;20217;-76
2022/10/05 12:18:47;;;;;;;0.00;0.00;;;20.00;99.90;;;;;;4968727;28;20197;-77
2022/10/05 12:21:26;;;;;;;0.00;0.00;;;20.20;99.90;;;;;;4960325;28;20201;-77
2022/10/05 12:23:58;;;;;;;0.00;0.00;;;20.30;99.90;;;;;;4969444;28;20205;-76
2022/10/05 12:26:31;;;;;;;0.00;0.00;;;20.20;99.90;;;;;;4944201;28;20244;-76
2022/10/05 12:29:07;;;;;;;0.00;0.00;;;20.30;99.90;;;;;;4957999;28;20225;-77
2022/10/05 12:31:43;;;;;;;0.00;0.00;;;20.60;99.90;;;;;;4957905;28;20216;-77
2022/10/05 12:34:22;;;;;;;0.00;0.00;;;20.60;99.90;;;;;;4968597;28;20201;-77
2022/10/05 12:36:54;;;;;;;0.00;0.00;;;20.50;99.90;;;;;;4953611;28;20240;-76
2022/10/05 12:39:41;;;;;;;0.00;0.00;;;20.30;99.90;;;;;;4958390;28;20216;-77
2022/10/05 12:42:29;;;;;;;0.00;0.00;;;20.30;99.90;;;;;;4955975;28;20192;-76
2022/10/05 12:45:22;;;;;;;0.00;0.00;;;20.30;99.90;;;;;;4956030;28;20201;-77
2022/10/05 12:48:14;;;;;;;0.00;0.00;;;20.40;99.90;;;;;;4941186;28;20325;-77
2022/10/05 12:50:48;;;;;;;0.00;0.00;;;20.50;99.90;;;;;;4962893;28;20280;-76
2022/10/05 12:53:36;;;;;;;0.00;0.00;;;20.50;99.90;;;;;;4966458;28;20193;-77
2022/10/05 12:56:09;;;;;;;0.00;0.00;;;20.60;99.90;;;;;;4956533;28;20641;-77
2022/10/05 12:58:50;;;;;;;0.00;0.00;;;20.40;99.90;;;;;;4967436;28;20578;-76
2022/10/05 13:01:29;;;;;;;0.00;0.00;;;20.50;99.90;;;;;;4954156;28;20213;-76
2022/10/05 13:04:07;;;;;;;0.00;0.00;;;20.40;99.90;;;;;;4937083;29;20249;-76
2022/10/05 13:06:41;;;;;;;0.00;0.00;;;20.30;99.90;;;;;;4951857;28;20304;-76
2022/10/05 13:09:15;;;;;;;0.00;0.00;;;20.30;99.90;;;;;;4971740;28;20227;-77
2022/10/05 13:11:47;;;;;;;0.00;0.00;;;20.30;99.90;;;;;;4970669;28;20201;-76
2022/10/05 13:14:37;;;;;;;0.00;0.00;;;20.20;99.90;;;;;;4975906;28;20200;-76
2022/10/05 13:17:13;;;;;;;0.00;0.00;;;20.20;99.90;;;;;;4963138;28;20240;-76
2022/10/05 13:19:46;;;;;;;0.00;0.00;;;20.20;99.90;;;;;;4973497;28;20743;-76
2022/10/05 13:22:25;;;;;;;0.00;0.00;;;20.00;99.90;;;;;;4983178;28;20277;-77
2022/10/05 13:25:04;;;;;;;0.00;0.00;;;19.80;99.90;;;;;;4991454;28;20208;-77
2022/10/05 13:27:36;;;;;;;0.00;0.00;;;19.80;99.90;;;;;;4965776;28;20566;-77
2022/10/05 13:30:13;;;;;;;0.00;0.00;;;19.90;99.90;;;;;;4969260;28;20206;-77
2022/10/05 13:32:44;;;;;;;0.00;0.00;;;20.10;99.90;;;;;;4973368;28;20635;-76
2022/10/05 13:35:27;;;;;;;0.00;0.00;;;20.10;99.90;;;;;;4976014;28;20197;-77
2022/10/05 13:38:07;;;;;;;0.00;0.00;;;20.00;99.90;;;;;;4958712;28;20634;-77
2022/10/05 13:40:39;;;;;;;0.00;0.00;;;20.10;99.90;;;;;;4968207;28;20217;-77
2022/10/05 13:43:16;;;;;;;0.00;0.00;;;19.90;99.90;;;;;;4966756;28;20251;-78
2022/10/05 13:45:52;;;;;;;0.00;0.00;;;19.70;99.90;;;;;;4964356;28;20256;-77
2022/10/05 13:48:45;;;;;;;0.00;0.00;;;19.60;99.90;;;;;;4970554;28;20635;-78
2022/10/05 13:51:19;;;;;;;0.00;0.00;;;19.40;99.90;;;;;;4954686;28;20221;-78
2022/10/05 13:53:54;;;;;;;0.00;0.00;;;19.40;99.90;;;;;;4976876;28;20197;-78
2022/10/05 13:56:28;;;;;;;0.00;0.00;;;19.30;99.90;;;;;;4970254;28;20320;-78
2022/10/05 13:59:07;;;;;;;0.00;0.00;;;19.20;99.90;;;;;;4975708;28;20193;-78
2022/10/05 14:01:41;;;;;;;0.00;0.00;;;19.10;99.90;;;;;;4961557;28;20213;-78
2022/10/05 14:04:16;;;;;;;0.00;0.00;;;19.10;99.90;;;;;;4971002;28;20232;-76
2022/10/05 14:06:45;;;;;;;0.00;0.00;;;19.20;99.90;;;;;;4960499;28;20283;-77
2022/10/05 14:09:28;;;;;;;0.00;0.00;;;19.20;99.90;;;;;;4968351;28;20252;-77
2022/10/05 14:12:12;;;;;;;0.00;0.00;;;19.10;99.90;;;;;;4965344;28;20210;-77
2022/10/05 14:14:46;;;;;;;0.00;0.00;;;19.10;99.90;;;;;;4955389;29;20673;-77
2022/10/05 14:17:28;;;;;;;0.00;0.00;;;19.10;99.90;;;;;;4952933;28;20232;-77